KIKK/IKK METAR and TAF weather

Enter ICAO airport designator
Station Type Date Time Source
KIKK METAR 2019/06/27 09:55 UTC NOAA

KIKK 270955Z AUTO 20006KT 10SM CLR 19/19 A3015 RMK AO2 T01920189


Station Type Date Time Source
KIKK Decoded METAR 2019/06/27 09:55 UTC NOAA

Kankakee, Greater Kankakee Airport, IL, United States (KIKK) 41-04-17N 087-50-47W
Jun 27, 2019 - 05:55 AM EDT / 2019.06.27 0955 UTC
Wind: from the SSW (200 degrees) at 7 MPH (6 KT):0
Visibility: 10 mile(s):0
Sky conditions: clear
Temperature: 66.6 F (19.2 C)
Dew Point: 66.0 F (18.9 C)
Relative Humidity: 98%
Pressure (altimeter): 30.15 in. Hg (1020 hPa)
ob: KIKK 270955Z AUTO 20006KT 10SM CLR 19/19 A3015 RMK AO2 T01920189
cycle: 10

Station Type Date Time Source
KIKK TAF UTC NOAA

Error!

Example: see airport list